Terminal Aerodrome Forecast
Issued by NWS

Home | Current Version | Previous Version | Text Only | Print | Product List | Glossary On
Versions: 1 2 3 4 5 6 7 8 9 10 11 12 13 14 15 16 17 18 19 20 21 22 23 24 25 26 27 28 29
000
FTUS45 KGJT 281754
TAFMTJ
TAF
KMTJ 281754Z 2818/2918 15006KT P6SM OVC080
     FM281900 34006KT P6SM BKN080
     FM290000 19005KT P6SM OVC070
     FM290800 15005KT 5SM -SN BR OVC030
     FM291200 14004KT 3SM -SN BR SCT015 OVC030=

USA.gov is the U.S. government's official web portal to all federal, state and local government web resources and services.